createdAt,value
2018-08-07T00:01:05.457Z,28.68
2018-08-07T00:03:10.241Z,28.80
2018-08-07T00:05:14.589Z,28.89
2018-08-07T00:07:18.814Z,28.93
2018-08-07T00:09:22.463Z,28.93
2018-08-07T00:11:29.451Z,28.92
2018-08-07T00:13:35.777Z,28.91
2018-08-07T00:15:42.721Z,28.88
2018-08-07T00:17:47.549Z,28.92
2018-08-07T00:19:51.881Z,28.93
2018-08-07T00:21:56.282Z,28.88
2018-08-07T00:24:00.336Z,28.85
2018-08-07T00:26:05.075Z,28.88
2018-08-07T00:28:10.429Z,28.86
2018-08-07T00:30:16.949Z,28.84
2018-08-07T00:32:22.976Z,28.31
2018-08-07T00:34:27.026Z,28.60
2018-08-07T00:36:34.836Z,28.62
2018-08-07T00:38:42.578Z,28.13
2018-08-07T00:40:49.047Z,27.76
2018-08-07T00:42:53.395Z,27.78
2018-08-07T00:44:58.525Z,28.07
2018-08-07T00:47:03.313Z,28.21
2018-08-07T00:49:08.302Z,28.24
2018-08-07T00:51:12.524Z,28.49
2018-08-07T00:53:16.400Z,28.60
2018-08-07T00:55:20.625Z,28.59
2018-08-07T00:57:25.935Z,28.62
2018-08-07T00:59:29.486Z,28.65
2018-08-07T01:01:34.100Z,28.66
2018-08-07T01:03:41.787Z,28.66
2018-08-07T01:05:48.908Z,28.64
2018-08-07T01:07:55.036Z,28.66
2018-08-07T01:09:59.724Z,28.64
2018-08-07T01:12:03.390Z,28.62
2018-08-07T01:14:07.287Z,28.61
2018-08-07T01:16:11.843Z,28.62
2018-08-07T01:18:15.473Z,28.61
2018-08-07T01:20:23.685Z,28.63
2018-08-07T01:22:27.539Z,28.61
2018-08-07T01:24:31.566Z,28.60
2018-08-07T01:26:35.482Z,28.42
2018-08-07T01:28:39.158Z,28.43
2018-08-07T01:30:47.413Z,28.50
2018-08-07T01:32:53.669Z,28.46
2018-08-07T01:34:58.117Z,28.53
2018-08-07T01:37:02.176Z,28.54
2018-08-07T01:39:08.680Z,28.53
2018-08-07T01:41:12.509Z,28.53
2018-08-07T01:43:16.848Z,28.53
2018-08-07T01:45:20.616Z,28.51
2018-08-07T01:47:24.880Z,28.50
2018-08-07T01:49:28.684Z,28.39
2018-08-07T01:51:33.080Z,28.16
2018-08-07T01:53:37.215Z,28.08
2018-08-07T01:55:41.321Z,28.29
2018-08-07T01:57:47.051Z,28.37
2018-08-07T01:59:51.370Z,28.38
2018-08-07T02:01:55.293Z,28.42
2018-08-07T02:03:58.965Z,28.33
2018-08-07T02:06:03.477Z,28.35
2018-08-07T02:08:07.577Z,28.40
2018-08-07T02:10:14.377Z,28.39
2018-08-07T02:12:18.609Z,28.41
2018-08-07T02:14:22.412Z,28.40
2018-08-07T02:16:25.966Z,28.42
2018-08-07T02:18:29.986Z,28.42
2018-08-07T02:20:33.454Z,28.42
2018-08-07T02:22:37.394Z,28.41
2018-08-07T02:24:41.361Z,28.34
2018-08-07T02:26:45.346Z,28.37
2018-08-07T02:28:52.600Z,28.38
2018-08-07T02:30:59.650Z,28.38
2018-08-07T02:33:05.669Z,28.39
2018-08-07T02:35:14.238Z,28.39
2018-08-07T02:37:17.959Z,28.39
2018-08-07T02:39:21.689Z,28.35
2018-08-07T02:41:25.882Z,28.36
2018-08-07T02:43:29.654Z,28.36
2018-08-07T02:45:33.348Z,28.35
2018-08-07T02:47:37.095Z,28.35
2018-08-07T02:49:41.099Z,28.34
2018-08-07T02:51:45.101Z,28.29
2018-08-07T02:53:48.774Z,28.27
2018-08-07T02:55:57.225Z,28.28
2018-08-07T02:58:04.845Z,27.87
2018-08-07T03:00:15.438Z,27.60
2018-08-07T03:02:20.568Z,27.32
2018-08-07T03:04:25.479Z,27.61
2018-08-07T03:06:29.891Z,27.96
2018-08-07T03:08:34.452Z,27.93
2018-08-07T03:10:38.026Z,28.01
2018-08-07T03:12:41.655Z,28.10
2018-08-07T03:14:45.901Z,28.15
2018-08-07T03:16:50.568Z,28.15
2018-08-07T03:18:55.313Z,28.18
2018-08-07T03:21:02.372Z,28.14
2018-08-07T03:23:09.182Z,28.06
2018-08-07T03:25:14.560Z,27.76
2018-08-07T03:27:18.423Z,27.61
2018-08-07T03:29:22.568Z,27.72
2018-08-07T03:31:26.376Z,27.30
2018-08-07T03:33:30.025Z,27.19
2018-08-07T03:35:33.977Z,27.70
2018-08-07T03:37:38.684Z,27.72
2018-08-07T03:39:42.204Z,27.78
2018-08-07T03:41:46.332Z,27.82
2018-08-07T03:43:49.903Z,27.80
2018-08-07T03:45:53.646Z,27.87
2018-08-07T03:47:57.316Z,27.97
2018-08-07T03:50:03.951Z,28.01
2018-08-07T03:52:10.493Z,28.02
2018-08-07T03:54:18.514Z,27.47
2018-08-07T03:56:22.405Z,27.43
2018-08-07T03:58:26.546Z,27.78
2018-08-07T04:00:30.145Z,27.72
2018-08-07T04:02:33.944Z,27.69
2018-08-07T04:04:38.346Z,27.65
2018-08-07T04:06:42.241Z,27.76
2018-08-07T04:08:45.968Z,27.77
2018-08-07T04:10:49.637Z,27.73
2018-08-07T04:12:54.053Z,27.78
2018-08-07T04:14:57.701Z,27.92
2018-08-07T04:17:01.451Z,27.97
2018-08-07T04:19:07.199Z,28.03
2018-08-07T04:21:13.885Z,28.10
2018-08-07T04:23:17.692Z,28.14
2018-08-07T04:25:22.447Z,28.12
2018-08-07T04:27:26.842Z,28.16
2018-08-07T04:29:30.354Z,28.18
2018-08-07T04:31:33.917Z,28.20
2018-08-07T04:33:38.165Z,28.23
2018-08-07T04:35:41.917Z,28.11
2018-08-07T04:37:46.314Z,28.14
2018-08-07T04:39:50.333Z,28.11
2018-08-07T04:41:53.942Z,28.00
2018-08-07T04:43:57.813Z,28.08
2018-08-07T04:46:02.012Z,28.20
2018-08-07T04:48:06.418Z,28.22
2018-08-07T04:50:11.945Z,28.24
2018-08-07T04:52:19.625Z,28.14
2018-08-07T04:54:25.748Z,27.99
2018-08-07T04:56:30.490Z,28.09
2018-08-07T04:58:34.737Z,28.18
2018-08-07T05:00:40.364Z,28.22
2018-08-07T05:02:45.324Z,28.28
2018-08-07T05:04:49.426Z,28.34
2018-08-07T05:06:53.556Z,28.37
2018-08-07T05:08:57.389Z,28.41
2018-08-07T05:11:01.290Z,28.34
2018-08-07T05:13:05.373Z,28.34
2018-08-07T05:15:10.102Z,28.31
2018-08-07T05:17:15.425Z,28.33
2018-08-07T05:19:23.809Z,28.31
2018-08-07T05:21:30.176Z,28.45
2018-08-07T05:23:35.413Z,28.45
2018-08-07T05:25:40.956Z,28.48
2018-08-07T05:27:44.761Z,28.49
2018-08-07T05:29:48.635Z,28.43
2018-08-07T05:31:52.921Z,28.41
2018-08-07T05:33:56.778Z,28.42
2018-08-07T05:36:00.574Z,28.44
2018-08-07T05:38:04.530Z,28.37
2018-08-07T05:40:09.409Z,28.39
2018-08-07T05:42:13.353Z,28.45
2018-08-07T05:44:17.808Z,28.50
2018-08-07T05:46:24.712Z,28.52
2018-08-07T05:48:30.033Z,28.53
2018-08-07T05:50:36.739Z,28.53
2018-08-07T05:52:40.328Z,28.55
2018-08-07T05:54:43.869Z,28.55
2018-08-07T05:56:47.861Z,28.49
2018-08-07T05:58:53.391Z,28.54
2018-08-07T06:01:01.078Z,28.58
2018-08-07T06:03:06.732Z,28.61
2018-08-07T06:05:11.653Z,28.61
2018-08-07T06:07:15.328Z,28.66
2018-08-07T06:09:19.229Z,28.67
2018-08-07T06:11:23.413Z,28.69
2018-08-07T06:13:26.919Z,28.66
2018-08-07T06:15:30.753Z,28.66
2018-08-07T06:17:34.213Z,28.62
2018-08-07T06:19:38.268Z,28.67
2018-08-07T06:21:42.212Z,28.73
2018-08-07T06:23:45.870Z,28.73
2018-08-07T06:25:49.835Z,28.81
2018-08-07T06:27:54.542Z,28.80
2018-08-07T06:30:02.161Z,28.83
2018-08-07T06:32:07.245Z,28.84
2018-08-07T06:34:13.121Z,28.86
2018-08-07T06:36:17.942Z,28.83
2018-08-07T06:38:21.574Z,28.89
2018-08-07T06:40:25.582Z,28.88
2018-08-07T06:42:29.076Z,28.91
2018-08-07T06:44:33.172Z,28.99
2018-08-07T06:46:37.001Z,28.95
2018-08-07T06:48:40.531Z,28.97
2018-08-07T06:50:44.066Z,29.02
2018-08-07T06:52:49.373Z,29.00
2018-08-07T06:54:53.366Z,29.09
2018-08-07T06:56:57.056Z,29.15
2018-08-07T06:59:02.307Z,29.20
2018-08-07T07:01:09.827Z,29.23
2018-08-07T07:03:16.097Z,29.26
2018-08-07T07:05:21.466Z,29.31
2018-08-07T07:07:25.189Z,29.34
2018-08-07T07:09:28.932Z,29.35
2018-08-07T07:11:32.803Z,29.35
2018-08-07T07:13:37.345Z,29.34
2018-08-07T07:15:40.888Z,29.33
2018-08-07T07:17:46.120Z,29.36
2018-08-07T07:19:49.740Z,29.40
2018-08-07T07:21:53.493Z,29.44
2018-08-07T07:23:57.641Z,29.46
2018-08-07T07:26:01.661Z,29.48
2018-08-07T07:28:06.878Z,29.51
2018-08-07T07:30:20.258Z,29.55
2018-08-07T07:32:25.714Z,29.58
2018-08-07T07:34:29.327Z,29.59
2018-08-07T07:36:33.206Z,29.63
2018-08-07T07:38:36.736Z,29.64
2018-08-07T07:40:40.346Z,29.66
2018-08-07T07:42:44.173Z,29.69
2018-08-07T07:44:47.799Z,29.71
2018-08-07T07:46:54.958Z,29.70
2018-08-07T07:48:58.985Z,29.74
2018-08-07T07:51:02.926Z,29.75
2018-08-07T07:53:07.382Z,29.77
2018-08-07T07:55:16.365Z,29.79
2018-08-07T07:57:26.643Z,29.83
2018-08-07T07:59:30.364Z,29.83
2018-08-07T08:01:34.022Z,29.86
2018-08-07T08:03:37.859Z,29.87
2018-08-07T08:05:41.625Z,29.90
2018-08-07T08:07:45.952Z,29.91
2018-08-07T08:09:49.664Z,29.95
2018-08-07T08:11:53.968Z,29.97
2018-08-07T08:13:58.124Z,29.99
2018-08-07T08:16:02.099Z,30.02
2018-08-07T08:18:06.171Z,30.05
2018-08-07T08:20:12.593Z,30.06
2018-08-07T08:22:19.860Z,30.08
2018-08-07T08:24:26.390Z,30.08
2018-08-07T08:26:32.573Z,30.08
2018-08-07T08:28:36.521Z,30.11
2018-08-07T08:30:40.208Z,30.12
2018-08-07T08:32:44.707Z,30.16
2018-08-07T08:34:48.487Z,30.19
2018-08-07T08:36:52.065Z,30.20
2018-08-07T08:38:56.449Z,30.21
2018-08-07T08:41:01.320Z,30.21
2018-08-07T08:43:05.528Z,30.24
2018-08-07T08:45:13.359Z,30.28
2018-08-07T08:47:17.141Z,30.28
2018-08-07T08:49:23.742Z,30.23
2018-08-07T08:51:30.255Z,30.23
2018-08-07T08:53:36.027Z,30.25
2018-08-07T08:55:40.078Z,30.27
2018-08-07T08:57:44.749Z,30.28
2018-08-07T08:59:48.334Z,30.28
2018-08-07T09:01:51.905Z,30.29
2018-08-07T09:03:55.929Z,30.29
2018-08-07T09:06:06.637Z,30.31
2018-08-07T09:08:11.630Z,30.34
2018-08-07T09:10:20.806Z,30.37
2018-08-07T09:12:24.447Z,30.41
2018-08-07T09:14:28.369Z,30.48
2018-08-07T09:16:31.887Z,30.51
2018-08-07T09:18:35.410Z,30.55
2018-08-07T09:20:39.465Z,30.55
2018-08-07T09:22:44.828Z,30.56
2018-08-07T09:24:49.793Z,30.55
2018-08-07T09:26:53.790Z,30.56
2018-08-07T09:29:00.385Z,30.55
2018-08-07T09:31:05.872Z,30.52
2018-08-07T09:33:12.966Z,30.54
2018-08-07T09:35:18.471Z,30.56
2018-08-07T09:37:22.084Z,30.58
2018-08-07T09:39:25.911Z,30.59
2018-08-07T09:41:29.755Z,30.61
2018-08-07T09:43:33.887Z,30.65
2018-08-07T09:45:37.718Z,30.70
2018-08-07T09:47:41.799Z,30.67
2018-08-07T09:49:45.488Z,30.66
2018-08-07T09:51:49.224Z,30.67
2018-08-07T09:53:53.082Z,30.70
2018-08-07T09:55:56.699Z,30.71
2018-08-07T09:58:01.842Z,30.69
2018-08-07T10:00:12.865Z,30.72
2018-08-07T10:02:22.113Z,30.73
2018-08-07T10:04:25.981Z,30.73
2018-08-07T10:06:30.349Z,30.75
2018-08-07T10:08:34.078Z,30.79
2018-08-07T10:10:37.740Z,30.82
2018-08-07T10:12:41.621Z,30.85
2018-08-07T10:14:45.878Z,30.90
2018-08-07T10:16:49.457Z,30.96
2018-08-07T10:18:53.599Z,30.99
2018-08-07T10:20:57.544Z,30.96
2018-08-07T10:23:01.356Z,30.95
2018-08-07T10:25:08.309Z,31.09
2018-08-07T10:27:15.112Z,31.13
2018-08-07T10:29:22.111Z,31.09
2018-08-07T10:31:26.149Z,31.12
2018-08-07T10:33:29.872Z,31.14
2018-08-07T10:35:33.542Z,31.10
2018-08-07T10:37:37.204Z,31.08
2018-08-07T10:39:40.864Z,31.12
2018-08-07T10:41:44.462Z,31.17
2018-08-07T10:43:49.102Z,31.22
2018-08-07T10:45:52.621Z,31.33
2018-08-07T10:47:56.151Z,31.29
2018-08-07T10:50:00.044Z,31.24
2018-08-07T10:52:03.706Z,31.28
2018-08-07T10:54:07.593Z,31.27
2018-08-07T10:56:15.120Z,31.27
2018-08-07T10:58:20.390Z,31.28
2018-08-07T11:00:27.566Z,31.29
2018-08-07T11:02:31.578Z,31.33
2018-08-07T11:04:35.387Z,31.31
2018-08-07T11:06:39.401Z,31.34
2018-08-07T11:08:48.674Z,31.30
2018-08-07T11:10:52.630Z,31.29
2018-08-07T11:12:57.774Z,31.31
2018-08-07T11:15:02.222Z,31.29
2018-08-07T11:17:08.791Z,31.28
2018-08-07T11:19:14.663Z,31.26
2018-08-07T11:21:23.377Z,31.30
2018-08-07T11:23:33.577Z,31.30
2018-08-07T11:25:38.081Z,31.32
2018-08-07T11:27:43.479Z,31.36
2018-08-07T11:29:48.975Z,31.40
2018-08-07T11:31:53.567Z,31.40
2018-08-07T11:34:00.134Z,31.45
2018-08-07T11:36:06.280Z,31.44
2018-08-07T11:38:10.160Z,31.47
2018-08-07T11:40:17.650Z,31.47
2018-08-07T11:42:29.690Z,31.47
2018-08-07T11:44:35.318Z,31.53
2018-08-07T11:46:39.414Z,31.49
2018-08-07T11:48:43.560Z,31.50
2018-08-07T11:50:48.585Z,31.53
2018-08-07T11:52:52.760Z,31.52
2018-08-07T11:54:56.730Z,31.58
2018-08-07T11:57:00.272Z,31.59
2018-08-07T11:59:12.391Z,31.63
2018-08-07T12:01:15.920Z,31.71
2018-08-07T12:03:19.570Z,31.84
2018-08-07T12:05:27.755Z,31.97
2018-08-07T12:07:36.343Z,32.11
2018-08-07T12:09:40.758Z,32.52
2018-08-07T12:11:44.630Z,32.04
2018-08-07T12:13:48.440Z,33.74
2018-08-07T12:15:53.134Z,34.29
2018-08-07T12:18:00.518Z,34.86
2018-08-07T12:20:07.311Z,34.65
2018-08-07T12:22:11.656Z,35.12
2018-08-07T12:24:15.691Z,35.47
2018-08-07T12:26:19.477Z,35.60
2018-08-07T12:28:23.147Z,36.23
2018-08-07T12:30:28.414Z,35.86
2018-08-07T12:32:32.323Z,36.18
2018-08-07T12:34:36.105Z,36.14
2018-08-07T12:36:41.020Z,36.58
2018-08-07T12:38:46.260Z,36.61
2018-08-07T12:40:53.243Z,36.68
2018-08-07T12:43:05.582Z,36.84
2018-08-07T12:45:12.791Z,36.86
2018-08-07T12:47:19.308Z,37.09
2018-08-07T12:49:24.307Z,37.19
2018-08-07T12:51:28.910Z,37.19
2018-08-07T12:53:35.147Z,37.45
2018-08-07T12:55:39.976Z,37.88
2018-08-07T12:57:47.157Z,37.74
2018-08-07T12:59:51.258Z,37.77
2018-08-07T13:01:55.592Z,38.01
2018-08-07T13:04:01.839Z,36.99
2018-08-07T13:06:10.039Z,37.51
2018-08-07T13:08:18.338Z,37.77
2018-08-07T13:10:24.301Z,37.67
2018-08-07T13:12:29.288Z,37.81
2018-08-07T13:14:34.547Z,34.98
2018-08-07T13:16:38.748Z,37.31
2018-08-07T13:18:44.213Z,37.01
2018-08-07T13:20:48.510Z,37.54
2018-08-07T13:22:53.042Z,37.76
2018-08-07T13:24:59.926Z,37.72
2018-08-07T13:27:05.664Z,35.88
2018-08-07T13:29:13.175Z,34.64
2018-08-07T13:31:18.276Z,36.24
2018-08-07T13:33:25.820Z,37.27
2018-08-07T13:35:30.339Z,37.28
2018-08-07T13:37:35.221Z,37.53
2018-08-07T13:39:39.834Z,37.56
2018-08-07T13:41:43.708Z,37.37
2018-08-07T13:43:48.395Z,37.34
2018-08-07T13:46:01.360Z,37.19
2018-08-07T13:48:06.732Z,37.19
2018-08-07T13:50:17.370Z,36.81
2018-08-07T13:52:26.841Z,36.53
2018-08-07T13:54:31.702Z,36.42
2018-08-07T13:56:36.362Z,36.30
2018-08-07T13:58:40.503Z,36.05
2018-08-07T14:00:45.141Z,35.74
2018-08-07T14:02:51.404Z,35.42
2018-08-07T14:04:56.827Z,35.36
2018-08-07T14:07:04.209Z,35.11
2018-08-07T14:09:16.992Z,34.92
2018-08-07T14:11:23.864Z,34.84
2018-08-07T14:13:29.129Z,34.75
2018-08-07T14:15:32.994Z,34.75
2018-08-07T14:17:37.189Z,34.70
2018-08-07T14:19:41.822Z,34.56
2018-08-07T14:21:45.769Z,34.43
2018-08-07T14:23:50.083Z,34.36
2018-08-07T14:25:55.636Z,34.35
2018-08-07T14:28:00.376Z,34.34
2018-08-07T14:30:06.931Z,34.12
2018-08-07T14:32:11.098Z,33.84
2018-08-07T14:34:16.437Z,33.75
2018-08-07T14:36:24.720Z,33.72
2018-08-07T14:38:32.132Z,33.68
2018-08-07T14:40:35.945Z,33.64
2018-08-07T14:42:41.401Z,33.61
2018-08-07T14:44:45.097Z,33.60
2018-08-07T14:46:48.645Z,33.47
2018-08-07T14:48:52.595Z,33.44
2018-08-07T14:50:57.841Z,33.39
2018-08-07T14:53:02.183Z,33.34
2018-08-07T14:55:06.767Z,33.51
2018-08-07T14:57:10.902Z,33.64
2018-08-07T14:59:18.830Z,33.52
2018-08-07T15:01:27.384Z,33.51
2018-08-07T15:04:20.067Z,33.70
2018-08-07T15:06:24.382Z,33.80
2018-08-07T15:08:29.881Z,33.84
2018-08-07T15:10:35.714Z,33.74
2018-08-07T15:12:40.210Z,33.80
2018-08-07T15:14:45.926Z,33.66
2018-08-07T15:16:49.763Z,33.64
2018-08-07T15:18:53.787Z,33.57
2018-08-07T15:20:58.728Z,33.48
2018-08-07T15:23:02.962Z,33.37
2018-08-07T15:25:16.920Z,33.22
2018-08-07T15:27:25.423Z,33.19
2018-08-07T15:29:29.903Z,33.12
2018-08-07T15:31:33.692Z,33.15
2018-08-07T15:33:37.882Z,33.13
2018-08-07T15:35:43.776Z,33.07
2018-08-07T15:37:58.112Z,33.10
2018-08-07T15:40:29.765Z,33.01
2018-08-07T15:42:37.967Z,32.96
2018-08-07T15:44:47.144Z,32.92
2018-08-07T15:46:51.819Z,32.89
2018-08-07T15:48:57.147Z,32.86
2018-08-07T15:51:08.095Z,32.86
2018-08-07T15:53:17.915Z,32.87
2018-08-07T15:55:25.570Z,32.84
2018-08-07T15:57:34.055Z,32.81
2018-08-07T15:59:43.134Z,32.86
2018-08-07T16:01:49.901Z,32.86
2018-08-07T16:04:01.866Z,32.86
2018-08-07T16:06:17.174Z,32.85
2018-08-07T16:08:21.641Z,32.86
2018-08-07T16:10:25.525Z,32.78
2018-08-07T16:12:34.566Z,32.81
2018-08-07T16:14:39.142Z,32.84
2018-08-07T16:16:43.032Z,32.86
2018-08-07T16:18:49.047Z,32.83
2018-08-07T16:20:57.240Z,32.81
2018-08-07T16:23:01.571Z,32.75
2018-08-07T16:25:08.039Z,32.76
2018-08-07T16:27:15.082Z,32.75
2018-08-07T16:29:22.417Z,32.76
2018-08-07T16:31:26.470Z,32.83
2018-08-07T16:33:35.207Z,32.84
2018-08-07T16:35:39.291Z,32.86
2018-08-07T16:37:46.972Z,32.94
2018-08-07T16:39:50.644Z,33.04
2018-08-07T16:41:54.348Z,33.00
2018-08-07T16:43:58.802Z,33.12
2018-08-07T16:46:07.339Z,33.16
2018-08-07T16:48:14.617Z,33.15
2018-08-07T16:50:28.668Z,33.03
2018-08-07T16:52:32.389Z,32.93
2018-08-07T16:54:36.615Z,32.90
2018-08-07T16:56:40.554Z,32.93
2018-08-07T16:58:44.069Z,32.92
2018-08-07T17:00:47.643Z,32.98
2018-08-07T17:02:51.764Z,32.94
2018-08-07T17:04:55.332Z,33.03
2018-08-07T17:07:00.151Z,33.22
2018-08-07T17:09:07.763Z,33.29
2018-08-07T17:11:15.841Z,33.28
2018-08-07T17:13:21.228Z,33.31
2018-08-07T17:15:28.112Z,33.21
2018-08-07T17:17:32.027Z,33.16
2018-08-07T17:19:35.735Z,33.07
2018-08-07T17:21:40.302Z,32.93
2018-08-07T17:23:43.934Z,32.86
2018-08-07T17:25:47.673Z,32.82
2018-08-07T17:27:51.835Z,32.74
2018-08-07T17:29:55.534Z,32.69
2018-08-07T17:31:59.294Z,32.67
2018-08-07T17:34:03.365Z,32.73
2018-08-07T17:36:07.289Z,32.83
2018-08-07T17:38:11.125Z,32.85
2018-08-07T17:40:19.719Z,32.86
2018-08-07T17:42:29.084Z,32.86
2018-08-07T17:44:33.676Z,32.84
2018-08-07T17:46:37.486Z,32.82
2018-08-07T17:48:41.346Z,32.74
2018-08-07T17:50:45.170Z,32.75
2018-08-07T17:52:50.490Z,32.70
2018-08-07T17:54:54.151Z,32.69
2018-08-07T17:56:58.955Z,32.65
2018-08-07T17:59:03.237Z,32.63
2018-08-07T18:01:06.913Z,32.62
2018-08-07T18:03:10.998Z,32.61
2018-08-07T18:05:15.486Z,32.59
2018-08-07T18:07:26.933Z,32.59
2018-08-07T18:09:34.406Z,32.55
2018-08-07T18:11:39.361Z,32.48
2018-08-07T18:13:43.021Z,32.44
2018-08-07T18:15:46.898Z,32.43
2018-08-07T18:17:51.279Z,32.41
2018-08-07T18:19:55.597Z,32.35
2018-08-07T18:21:59.865Z,32.33
2018-08-07T18:24:03.650Z,32.29
2018-08-07T18:26:08.690Z,32.21
2018-08-07T18:28:14.779Z,32.24
2018-08-07T18:30:21.234Z,32.23
2018-08-07T18:32:28.510Z,32.16
2018-08-07T18:34:37.071Z,32.17
2018-08-07T18:36:42.576Z,32.12
2018-08-07T18:38:49.057Z,32.11
2018-08-07T18:40:53.168Z,32.14
2018-08-07T18:42:58.777Z,32.08
2018-08-07T18:45:06.078Z,32.10
2018-08-07T18:47:14.069Z,32.02
2018-08-07T18:49:18.655Z,32.03
2018-08-07T18:51:22.829Z,31.99
2018-08-07T18:53:26.678Z,31.94
2018-08-07T18:55:30.835Z,31.84
2018-08-07T18:57:34.610Z,31.84
2018-08-07T18:59:38.640Z,31.86
2018-08-07T19:01:43.856Z,31.81
2018-08-07T19:03:48.684Z,31.90
2018-08-07T19:05:53.477Z,31.81
2018-08-07T19:07:58.664Z,31.83
2018-08-07T19:10:06.540Z,31.84
2018-08-07T19:12:18.264Z,31.81
2018-08-07T19:14:25.243Z,31.81
2018-08-07T19:16:30.352Z,31.71
2018-08-07T19:18:35.462Z,31.77
2018-08-07T19:20:40.361Z,31.69
2018-08-07T19:22:44.248Z,31.65
2018-08-07T19:24:47.866Z,31.71
2018-08-07T19:26:51.912Z,31.70
2018-08-07T19:28:56.603Z,31.70
2018-08-07T19:31:01.472Z,31.72
2018-08-07T19:33:08.860Z,31.71
2018-08-07T19:35:16.359Z,31.69
2018-08-07T19:37:24.356Z,31.64
2018-08-07T19:39:29.573Z,31.60
2018-08-07T19:41:34.502Z,31.63
2018-08-07T19:43:39.079Z,31.64
2018-08-07T19:45:46.040Z,31.60
2018-08-07T19:47:51.509Z,31.59
2018-08-07T19:50:06.081Z,31.60
2018-08-07T19:52:24.576Z,31.53
2018-08-07T19:54:30.267Z,31.52
2018-08-07T19:56:34.539Z,31.51
2018-08-07T19:58:40.084Z,31.52
2018-08-07T20:00:43.980Z,31.50
2018-08-07T20:02:48.062Z,31.49
2018-08-07T20:04:52.457Z,31.50
2018-08-07T20:06:57.144Z,31.49
2018-08-07T20:09:03.910Z,31.47
2018-08-07T20:11:09.260Z,31.43
2018-08-07T20:13:17.683Z,31.40
2018-08-07T20:15:27.851Z,31.40
2018-08-07T20:17:32.503Z,31.35
2018-08-07T20:19:47.364Z,31.36
2018-08-07T20:21:52.211Z,31.38
2018-08-07T20:23:57.820Z,31.37
2018-08-07T20:26:01.662Z,31.33
2018-08-07T20:28:08.044Z,31.33
2018-08-07T20:30:14.001Z,31.31
2018-08-07T20:32:22.519Z,31.30
2018-08-07T20:34:27.878Z,31.31
2018-08-07T20:36:35.334Z,31.25
2018-08-07T20:38:39.688Z,31.26
2018-08-07T20:40:44.717Z,31.28
2018-08-07T20:42:49.981Z,31.22
2018-08-07T20:44:54.776Z,31.21
2018-08-07T20:46:59.413Z,31.18
2018-08-07T20:49:03.343Z,31.17
2018-08-07T20:51:07.063Z,31.16
2018-08-07T20:53:11.365Z,31.14
2018-08-07T20:55:17.779Z,31.17
2018-08-07T20:57:26.907Z,31.15
2018-08-07T20:59:35.071Z,31.10
2018-08-07T21:01:40.729Z,31.09
2018-08-07T21:03:44.307Z,31.09
2018-08-07T21:05:48.510Z,31.06
2018-08-07T21:07:52.442Z,31.06
2018-08-07T21:09:56.886Z,31.02
2018-08-07T21:12:00.717Z,30.95
2018-08-07T21:14:04.958Z,30.95
2018-08-07T21:16:08.912Z,30.90
2018-08-07T21:18:13.042Z,30.90
2018-08-07T21:20:19.574Z,30.88
2018-08-07T21:22:26.397Z,30.88
2018-08-07T21:24:34.161Z,30.91
2018-08-07T21:26:39.711Z,30.90
2018-08-07T21:28:44.477Z,30.89
2018-08-07T21:30:48.377Z,30.87
2018-08-07T21:32:52.090Z,30.76
2018-08-07T21:34:55.772Z,30.65
2018-08-07T21:37:01.154Z,30.58
2018-08-07T21:39:08.257Z,30.56
2018-08-07T21:41:12.118Z,30.56
2018-08-07T21:43:15.980Z,30.62
2018-08-07T21:45:21.069Z,30.68
2018-08-07T21:47:25.649Z,30.75
2018-08-07T21:49:32.597Z,30.51
2018-08-07T21:51:39.135Z,30.71
2018-08-07T21:53:43.046Z,30.79
2018-08-07T21:55:46.654Z,30.80
2018-08-07T21:57:50.310Z,30.80
2018-08-07T21:59:53.898Z,30.75
2018-08-07T22:01:59.734Z,30.77
2018-08-07T22:04:07.566Z,30.71
2018-08-07T22:06:13.948Z,30.78
2018-08-07T22:08:19.069Z,30.80
2018-08-07T22:10:22.814Z,30.80
2018-08-07T22:12:26.457Z,30.79
2018-08-07T22:14:31.085Z,30.78
2018-08-07T22:16:35.500Z,30.76
2018-08-07T22:18:39.805Z,30.78
2018-08-07T22:20:43.767Z,30.77
2018-08-07T22:22:47.298Z,30.73
2018-08-07T22:24:50.845Z,30.74
2018-08-07T22:26:54.670Z,30.75
2018-08-07T22:28:58.763Z,30.71
2018-08-07T22:31:05.947Z,30.70
2018-08-07T22:33:14.806Z,30.64
2018-08-07T22:35:20.375Z,30.70
2018-08-07T22:37:26.735Z,30.66
2018-08-07T22:39:31.376Z,30.67
2018-08-07T22:41:35.492Z,30.69
2018-08-07T22:43:39.883Z,30.70
2018-08-07T22:45:43.975Z,30.69
2018-08-07T22:47:48.328Z,30.70
2018-08-07T22:49:51.958Z,30.67
2018-08-07T22:51:56.195Z,30.63
2018-08-07T22:54:00.383Z,30.67
2018-08-07T22:56:04.756Z,30.66
2018-08-07T22:58:18.024Z,30.66
2018-08-07T23:00:23.681Z,30.65
2018-08-07T23:02:27.707Z,30.64
2018-08-07T23:04:32.081Z,30.64
2018-08-07T23:06:36.967Z,30.63
2018-08-07T23:08:41.263Z,30.63
2018-08-07T23:10:45.354Z,30.63
2018-08-07T23:12:49.162Z,30.63
2018-08-07T23:14:52.999Z,30.63
2018-08-07T23:16:57.283Z,30.60
2018-08-07T23:19:01.110Z,30.58
2018-08-07T23:21:04.734Z,30.58
2018-08-07T23:23:09.335Z,30.59
2018-08-07T23:25:15.129Z,30.55
2018-08-07T23:27:23.629Z,30.56
2018-08-07T23:29:29.567Z,30.49
2018-08-07T23:31:33.273Z,30.50
2018-08-07T23:33:36.837Z,30.53
2018-08-07T23:35:41.897Z,30.51
2018-08-07T23:37:45.541Z,30.45
2018-08-07T23:39:49.473Z,30.49
2018-08-07T23:41:53.625Z,30.36
2018-08-07T23:43:57.229Z,30.18
2018-08-07T23:46:00.885Z,30.22
2018-08-07T23:48:05.434Z,30.21
2018-08-07T23:50:09.794Z,30.13
2018-08-07T23:52:13.600Z,30.08
2018-08-07T23:54:20.549Z,30.06
2018-08-07T23:56:26.966Z,30.11
2018-08-07T23:58:32.077Z,30.07
